Clearlake, WA (98235)

4:21 AM PDT on August 30, 2014 (GMT -0700)
Highlands | Change Station
CLOSE
Current Station
Personal Weather Station
Location: Mount Vernon, WA
Elevation: 499 ft
Nearby Weather Stations

Elev 499 ft 48.41 °N, 122.28 °W | Updated 13 minutes ago

Overcast
Overcast
56.1 °F
Feels Like 56.1 °F
N
0.0
Wind Variable Wind from South

Today
High -- | Low -- °F
--% Chance of Precip.
Yesterday
High -- | Low -- °F
Precip. -- in
6:23 AM 7:54 PM
Waxing Crescent, 21% visible
Pressure 29.94 in
Visibility 9.0 miles
Clouds Few 2700 ft
Scattered Clouds 3400 ft
Mostly Cloudy 6500 ft
Dew Point 55 °F
Humidity 95%
Rainfall 0.00 in
Snow Depth Not available.
UV 0 out of 12
Pollen .60 out of 12
PM2.5 Good
Flu Activity Not available.
METAR KBVS 301115Z AUTO 22005KT 9SM FEW027 SCT034 BKN065 14/13 A2994 RMK A01 P000

More Conditions Fewer Conditions

Pressure 29.94 in
Visibility 9.0 miles
Clouds Few 2700 ft
Scattered Clouds 3400 ft
Mostly Cloudy 6500 ft
Dew Point 55 °F
Humidity 95%
Rainfall 0.00 in
Snow Depth Not available.
UV 0 out of 12
Pollen .60 out of 12
PM2.5 Good
Flu Activity Not available.
METAR KBVS 301115Z AUTO 22005KT 9SM FEW027 SCT034 BKN065 14/13 A2994 RMK A01 P000

More Conditions Fewer Conditions

10-Day Weather Forecast

Almanac

Astronomy

Aug. 30, 2014 Rise Set
Actual Time 6:23 AM PDT 7:54 PM PDT
Civil Twilight 5:50 AM PDT 8:26 PM PDT
Nautical Twilight 5:11 AM PDT 9:06 PM PDT
Astronomical Twilight 4:27 AM PDT 9:49 PM PDT
Moon 11:42 AM PDT 10:04 PM PDT
Length of Visible Light 14h 36m
Length of Day
13h 30m
Tomorrow will be 3m 24s shorter.
Waxing Crescent, 21% of the Moon is Illuminated
Today
Waxing Crescent
Sep 2
First Quarter
Sep 8
Full
Sep 15
Last Quarter
Sep 24
New

Today's Extremes

State Highs State Lows

Community

WunderPhotos

Upload Photos

1,748,492 photos uploaded!

WunderBlogs® & News

By Dr. Jeff Masters
Director of Meteorology, Weather Underground
By Kari Strenfel
Meteorologist, Weather Underground
By Christopher C. Burt
Weather Historian, Weather Underground
August 30, 2014
August 30, 2014
August 30, 2014

Nearby

Air Quality

  Air Quality AQ Index Pollutant
Yesterday Good
OZONE
Yesterday Good
PM2.5
Current Good
PM2.5
Saturday Good
OZONE
Saturday Good
PM2.5
Sunday Good
OZONE
Sunday Good
PM2.5
Monday Good
OZONE
Monday Good
PM2.5
Tuesday Good
OZONE
Tuesday Good
PM2.5

Snow Depth

Station Depth Elevation
Elbow Lake 0 in 3200 ft
Mf Nooksack 0 in 4980 ft
Beaver Pass 0 in 3620 ft
Alpine Meadows 0 in 3500 ft
Dungeness 0 in 4100 ft

Earthquake Activity

City Distance Mag. Time & Date
No recent earthquake activity has been reported nearby.
Minimum magnitude displayed is 2.5.

Coastal Water Temperatures

Place Temperature
Port Townsend, WA 53.1 °F
Friday Harbor, WA 53.1 °F
Port Angeles, WA 53.1 °F

Nearby Weather Stations